Date,TemperatureHighF,TemperatureAvgF,TemperatureLowF,DewpointHighF,DewpointAvgF,DewpointLowF,HumidityHigh,HumidityAvg,HumidityLow,PressureMaxIn,PressureMinIn,WindSpeedMaxMPH,WindSpeedAvgMPH,GustSpeedMaxMPH,PrecipitationSumIn
2013-1-1,28,26,24,66,25,22,92,92,91,30.21,30.03,0,0,0,0.00
2013-1-2,31,28,24,62,26,22,92,92,92,30.38,30.05,0,0,0,0.00
2013-1-3,44,34,24,38,31,22,92,88,77,30.51,30.30,79,1,79,0.00
2013-1-4,50,44,32,41,38,34,88,79,68,30.30,30.03,10,2,16,0.00
2013-1-5,44,40,4,42,38,30,91,90,82,30.10,29.88,7,1,10,0.10
2013-1-6,38,33,-18,100,30,26,91,85,77,30.15,29.95,5,0,8,0.04
2013-1-7,37,30,23,50,25,17,92,80,62,30.37,29.95,11,1,11,0.08
2013-1-8,32,27,24,22,20,18,81,74,63,30.39,30.30,4,0,4,0.02
2013-1-9,29,26,25,40,24,22,91,89,88,30.23,30.13,6,1,7,0.00
2013-1-10,33,30,24,31,28,22,92,92,91,30.11,29.77,9,1,10,0.04
2013-1-11,40,34,29,38,31,24,92,88,80,29.94,29.73,6,0,8,0.02
2013-1-12,36,29,22,78,24,19,88,81,67,30.09,29.95,8,1,10,0.02
2013-1-13,35,31,27,30,27,24,89,85,79,30.09,30.00,29,1,29,0.00
2013-1-14,42,37,30,36,32,26,88,83,75,30.00,29.85,10,3,14,0.08
2013-1-15,47,41,38,43,37,35,91,88,81,29.89,29.65,18,1,18,0.08
2013-1-16,41,39,37,39,37,35,92,91,90,29.65,29.48,6,0,8,0.53
2013-1-17,38,37,34,36,34,-4,91,91,88,29.61,29.47,8,2,9,0.02
2013-1-18,33,32,30,30,29,28,92,90,88,29.60,29.43,10,3,12,0.08
2013-1-19,31,29,27,29,26,25,92,90,86,29.61,29.43,0,0,0,0.02
2013-1-20,43,35,29,41,33,26,91,90,88,29.61,29.46,7,1,8,0.06
2013-1-21,54,48,43,47,44,40,91,85,75,29.47,29.34,10,2,11,0.04
2013-1-22,46,37,32,42,34,29,91,89,83,29.65,29.35,14,3,16,0.00
2013-1-23,37,34,31,100,32,29,91,90,89,29.82,29.65,7,2,10,0.04
2013-1-24,40,34,31,37,31,28,92,90,85,29.81,29.62,14,4,17,0.04
2013-1-25,33,30,27,28,24,21,88,78,72,29.89,29.64,17,6,21,0.00
2013-1-26,112,30,26,52,24,21,87,80,75,30.01,29.88,12,2,16,0.00
2013-1-27,35,30,26,28,26,23,90,83,70,30.05,29.89,6,1,29,0.00
2013-1-28,35,31,29,31,29,27,91,90,86,30.12,29.88,39,1,39,0.08
2013-1-29,41,34,23,37,31,21,92,89,84,30.17,30.00,7,2,8,0.04
2013-1-30,45,41,36,42,38,33,91,89,87,30.01,29.82,10,2,10,0.14
2013-1-31,98,46,38,41,37,33,90,74,47,29.99,29.81,14,2,14,0.08
2013-2-1,54,44,36,40,35,32,84,70,47,29.89,29.54,39,2,39,0.00
2013-2-2,48,43,40,44,39,33,90,86,65,29.54,29.23,14,4,15,0.39
2013-2-3,40,35,30,38,32,28,92,91,90,29.93,29.37,10,2,16,0.51
2013-2-4,108,34,26,32,29,24,91,85,75,29.99,29.92,50,2,50,0.06
2013-2-5,45,39,33,100,34,29,87,83,71,29.95,29.61,8,2,12,0.02
2013-2-6,50,40,35,42,36,32,91,86,72,29.60,29.37,6,1,7,0.04
2013-2-7,38,36,33,36,32,29,91,86,80,29.67,29.36,13,2,13,0.02
2013-2-8,43,35,32,32,29,26,90,79,59,29.82,29.67,7,1,11,0.00
2013-2-9,33,31,30,30,27,25,90,86,78,29.89,29.81,8,1,8,0.39
2013-2-10,35,31,28,32,28,25,91,90,87,29.89,29.81,2,0,6,0.02
2013-2-11,98,28,23,29,24,20,92,89,78,29.96,29.87,6,1,7,0.06
2013-2-12,105,34,26,34,30,23,90,85,77,29.88,29.77,11,1,12,0.08
2013-2-13,47,40,34,54,35,-20,88,84,74,30.00,29.83,7,1,8,0.02
2013-2-14,41,39,37,38,36,34,92,91,87,30.09,30.00,5,0,5,0.39
2013-2-15,49,41,36,44,38,34,92,88,80,30.07,30.00,3,0,4,0.02
2013-2-16,46,40,34,40,36,14,91,87,81,30.14,30.06,3,0,4,0.00
2013-2-17,38,36,34,33,32,28,88,83,79,30.17,30.12,5,0,6,0.00
2013-2-18,42,34,31,33,28,26,84,78,68,30.16,30.08,7,1,8,0.00
2013-2-19,43,36,29,33,29,26,90,76,59,30.09,29.85,10,1,10,0.00
2013-2-20,45,37,30,34,29,25,89,75,51,30.04,29.86,9,2,36,0.00
2013-2-21,39,32,26,29,26,22,89,81,67,30.06,29.88,11,1,11,0.00
2013-2-22,36,33,30,33,30,27,91,91,89,29.88,29.71,6,1,8,0.29
2013-2-23,46,39,2,100,37,31,92,89,82,29.80,29.67,10,2,15,0.26
2013-2-24,47,44,42,44,41,38,91,86,82,29.89,29.75,14,3,16,2.01
2013-2-25,54,47,40,47,43,37,91,86,76,30.07,29.87,7,1,10,0.08
2013-2-26,49,46,43,44,43,40,91,88,84,30.13,30.03,6,0,9,0.16
2013-2-27,142,43,39,42,40,37,91,91,91,30.26,30.11,4,0,4,0.61
2013-2-28,50,40,34,58,36,31,92,87,73,30.32,30.17,5,0,8,0.04
2013-3-1,43,36,-16,40,34,4,92,89,83,30.17,30.00,8,1,8,0.01
2013-3-2,50,40,33,36,32,28,89,72,48,30.14,30.00,7,0,10,0.01
2013-3-3,142,40,29,35,30,25,87,71,48,30.12,29.97,13,1,17,0.01
2013-3-4,53,39,31,33,28,25,81,66,42,30.32,30.05,5,0,7,0.00
2013-3-5,55,41,28,30,27,23,84,61,35,30.35,30.14,12,2,54,0.00
2013-3-6,140,49,37,41,35,28,73,62,48,30.13,29.82,14,4,14,0.00
2013-3-7,56,48,45,46,42,37,89,80,65,29.82,29.66,82,4,82,0.00
2013-3-8,134,54,45,52,46,42,90,77,53,29.67,29.56,10,2,14,0.00
2013-3-9,59,52,48,100,48,44,90,85,77,29.57,29.52,4,0,6,0.20
2013-3-10,57,51,48,100,48,45,91,89,82,29.52,29.43,4,0,4,0.35
2013-3-11,56,48,42,50,44,38,91,86,75,29.52,29.41,4,0,6,0.08
2013-3-12,61,48,38,45,40,34,88,75,53,29.53,29.42,6,1,9,0.02
2013-3-13,105,49,44,100,45,41,91,85,71,29.45,29.40,8,1,8,0.18
2013-3-14,47,38,29,44,36,27,92,91,90,29.40,29.15,16,4,16,0.53
2013-3-15,34,30,27,31,27,25,92,91,87,29.86,29.18,0,0,0,0.04
2013-3-16,39,30,24,52,25,21,90,80,62,30.14,29.85,4,0,9,0.35
2013-3-17,39,31,22,26,23,19,89,72,51,30.17,29.99,10,2,10,0.08
2013-3-18,43,38,30,37,31,24,88,77,65,29.99,29.34,20,6,20,0.14
2013-3-19,53,44,37,43,39,32,91,82,62,29.70,29.32,13,3,18,0.24
2013-3-20,62,48,35,44,38,32,90,70,43,29.77,29.70,12,1,12,0.06
2013-3-21,47,44,37,100,40,34,91,85,72,29.71,29.63,8,2,15,0.57
2013-3-22,49,38,33,38,32,26,92,79,62,29.95,29.68,10,2,13,0.24
2013-3-23,42,35,28,28,25,17,75,67,57,30.07,29.94,9,1,9,0.02
2013-3-24,142,30,23,18,15,11,69,55,44,30.16,30.01,16,3,16,0.00
2013-3-25,34,30,29,29,22,16,91,73,57,30.01,29.64,82,4,82,0.00
2013-3-26,150,32,28,31,28,25,91,90,85,29.70,29.62,8,3,9,0.00
2013-3-27,38,33,31,33,30,28,92,89,80,29.95,29.69,6,1,7,0.31
2013-3-28,66,36,31,34,31,29,92,83,67,30.04,29.95,8,1,61,0.24
2013-3-29,80,39,4,42,36,31,92,88,80,29.96,29.70,16,3,20,0.26
2013-3-30,80,45,38,47,42,36,92,91,88,29.70,29.50,14,0,14,0.67
2013-3-31,59,48,36,100,45,31,91,86,79,29.62,29.34,16,3,18,0.24
2013-4-1,50,39,32,35,31,29,87,74,54,29.85,29.61,12,1,14,0.02
2013-4-2,45,40,34,41,36,29,91,86,77,29.85,29.56,12,3,12,0.71
2013-4-3,124,44,39,46,41,36,92,91,89,29.71,29.53,9,2,12,0.71
2013-4-4,45,41,37,40,37,35,92,86,78,29.85,29.69,12,2,13,0.00
2013-4-5,45,42,38,42,39,35,92,90,86,29.84,29.57,7,2,9,0.35
2013-4-6,53,46,41,46,42,37,92,85,73,29.95,29.62,7,1,12,0.12
2013-4-7,52,44,39,40,36,32,86,74,59,29.97,29.85,13,3,14,0.00
2013-4-8,54,45,34,37,32,28,80,63,45,29.89,29.81,10,2,13,0.00
2013-4-9,54,48,42,45,42,37,88,79,62,29.83,29.76,36,2,36,0.02
2013-4-10,64,52,44,49,44,39,91,76,49,29.89,29.75,8,2,12,0.02
2013-4-11,68,54,39,48,42,32,90,68,42,29.95,29.84,12,2,14,0.00
2013-4-12,67,56,48,56,49,42,86,77,61,29.87,29.75,13,2,14,0.10
2013-4-13,68,57,48,50,45,40,90,68,42,30.19,29.80,11,2,11,0.06
2013-4-14,122,57,44,47,41,35,80,59,34,30.30,30.18,7,1,10,0.00
2013-4-15,66,54,43,44,40,35,83,61,36,30.33,30.23,7,1,46,0.00
2013-4-16,71,56,42,46,40,36,82,57,34,30.28,30.19,8,0,25,0.00
2013-4-17,75,60,16,48,42,39,83,55,31,30.24,30.14,8,0,8,0.00
2013-4-18,77,62,46,50,43,41,86,55,29,30.17,30.03,6,0,6,0.00
2013-4-19,77,62,48,47,42,38,75,51,27,30.09,29.97,8,1,8,0.00
2013-4-20,76,63,48,55,48,40,76,59,41,30.06,29.98,8,2,9,0.00
2013-4-21,76,63,52,52,47,43,72,58,43,30.04,29.91,10,3,12,0.00
2013-4-22,64,55,50,50,44,40,71,66,61,29.99,29.91,5,1,8,0.00
2013-4-23,75,64,48,54,49,44,77,58,39,30.21,29.97,10,2,13,0.00
2013-4-24,142,66,50,78,46,42,73,52,30,30.31,30.19,16,1,17,0.00
2013-4-25,82,68,52,54,47,39,82,52,25,30.25,30.11,12,1,12,0.00
2013-4-26,84,70,53,56,51,47,81,55,30,30.12,29.76,50,2,50,0.12
2013-4-27,84,72,57,56,51,48,75,52,31,29.77,29.66,61,2,61,0.12
2013-4-28,80,70,59,57,53,50,80,56,39,29.98,29.71,15,2,16,0.00
2013-4-29,86,72,56,59,54,51,84,58,34,30.07,29.96,10,2,14,0.00
2013-4-30,88,74,60,61,56,52,78,56,36,30.06,29.95,8,2,14,0.00
2013-5-1,88,76,65,100,57,54,77,54,34,30.07,29.98,6,0,8,0.00
2013-5-2,87,74,61,64,59,54,80,61,41,30.00,29.80,8,2,13,0.00
2013-5-3,123,72,63,62,58,55,78,63,45,29.85,29.75,15,2,15,0.00
2013-5-4,77,66,55,58,54,51,85,66,46,30.01,29.84,7,1,14,0.00
2013-5-5,78,68,56,58,55,51,84,63,48,30.10,30.00,7,1,7,0.00
2013-5-6,138,69,60,65,58,27,88,71,48,30.12,29.97,14,2,14,0.14
2013-5-7,76,66,60,64,60,56,89,80,57,30.07,29.93,11,1,15,0.12
2013-5-8,100,69,60,63,60,57,89,73,53,30.00,29.90,8,0,8,0.04
2013-5-9,76,68,61,58,55,34,87,66,49,30.04,29.95,10,1,10,0.00
2013-5-10,82,70,56,60,53,49,86,58,34,29.99,29.79,13,1,13,0.00
2013-5-11,78,65,57,60,54,49,80,67,49,29.84,29.67,8,1,10,0.00
2013-5-12,70,61,55,58,54,50,88,77,64,29.76,29.68,11,1,12,0.00
2013-5-13,57,54,53,53,50,48,89,86,78,29.89,29.74,6,0,6,0.16
2013-5-14,64,55,46,52,48,42,88,77,60,29.91,29.85,9,0,9,0.04
2013-5-15,72,63,53,56,52,50,88,71,50,29.86,29.76,6,0,8,0.00
2013-5-16,80,66,12,57,52,48,87,62,39,29.79,29.64,11,2,12,0.00
2013-5-17,73,66,59,63,58,53,88,78,60,29.74,29.63,10,2,14,0.04
2013-5-18,76,65,55,58,53,51,90,68,43,29.93,29.71,13,2,16,0.06
2013-5-19,84,71,55,58,55,50,85,60,37,29.93,29.70,13,2,13,0.12
2013-5-20,75,65,56,57,52,46,88,63,40,29.94,29.74,10,2,14,0.16
2013-5-21,73,65,57,53,50,47,81,59,42,29.95,29.81,18,2,18,0.02
2013-5-22,64,58,55,56,53,51,89,84,69,29.83,29.66,8,1,10,0.10
2013-5-23,65,58,53,55,52,47,90,81,66,29.67,29.50,15,1,15,0.02
2013-5-24,67,59,52,52,49,2,84,71,56,29.71,29.57,10,1,11,0.00
2013-5-25,67,58,52,53,50,48,88,76,51,29.76,29.68,9,1,15,0.00
2013-5-26,58,53,49,100,50,46,90,87,78,29.75,29.68,9,1,10,0.08
2013-5-27,60,52,45,52,48,42,90,86,71,29.83,29.74,12,1,13,0.18
2013-5-28,68,59,-2,56,52,49,90,78,60,29.83,29.70,9,1,16,0.02
2013-5-29,77,67,56,60,56,51,85,70,49,29.71,29.52,8,1,12,0.00
2013-5-30,94,62,52,62,55,8,90,81,59,29.57,29.47,20,3,20,0.37
2013-5-31,68,57,50,55,50,47,90,80,56,29.60,29.54,12,2,12,0.14
2013-6-1,64,56,48,53,50,46,91,82,68,29.70,29.59,5,1,7,0.04
2013-6-2,72,60,52,58,53,49,90,77,57,29.81,29.67,32,1,32,0.02
2013-6-3,105,60,52,57,52,49,89,78,64,29.87,29.81,13,2,13,0.00
2013-6-4,61,57,54,56,52,49,89,85,80,29.90,29.82,7,1,9,0.04
2013-6-5,70,61,56,60,56,53,90,85,69,29.99,29.89,4,0,7,0.02
2013-6-6,146,63,56,63,58,53,90,86,70,30.03,29.97,8,0,8,0.31
2013-6-7,79,67,58,65,60,55,90,78,58,30.00,29.90,8,0,9,0.06
2013-6-8,85,71,59,64,60,55,88,70,48,29.93,29.83,4,0,6,0.04
2013-6-9,86,73,59,64,61,56,89,68,43,29.86,29.76,8,1,10,0.00
2013-6-10,82,69,58,68,62,57,88,78,57,29.79,29.63,16,1,16,0.10
2013-6-11,79,68,58,63,58,54,88,72,49,29.83,29.73,10,1,10,0.06
2013-6-12,80,68,57,61,57,14,88,70,51,29.99,29.81,10,1,11,0.00
2013-6-13,84,71,-4,62,57,52,82,63,42,30.02,29.95,10,1,11,0.00
2013-6-14,86,73,60,100,59,55,86,63,39,29.98,29.92,2,0,5,0.00
2013-6-15,88,75,38,66,62,58,86,64,38,29.95,29.88,2,0,5,0.00
2013-6-16,92,78,64,66,62,60,87,61,36,29.98,29.92,5,0,5,0.00
2013-6-17,96,78,66,100,64,61,86,62,35,30.00,29.95,7,0,7,0.00
2013-6-18,97,83,68,70,66,62,84,58,38,29.99,29.92,6,0,6,0.00
2013-6-19,99,84,70,70,67,64,84,59,35,29.96,29.91,4,0,5,0.00
2013-6-20,97,85,72,76,70,67,84,64,43,29.95,29.87,7,1,11,0.00
2013-6-21,98,85,73,74,69,66,78,62,40,29.89,29.83,10,1,10,0.00
2013-6-22,99,82,71,73,68,64,84,65,38,29.88,29.77,10,1,12,0.00
2013-6-23,87,75,68,71,66,64,89,75,55,29.85,29.75,10,1,13,0.10
2013-6-24,88,72,60,100,66,56,86,75,55,29.80,29.69,4,0,5,0.04
2013-6-25,64,60,58,100,55,51,86,82,75,29.99,29.79,11,2,11,0.06
2013-6-26,69,63,54,54,51,48,81,66,57,30.14,29.97,12,1,12,0.02
2013-6-27,72,62,49,58,52,24,88,73,53,30.14,30.03,0,0,4,0.00
2013-6-28,72,64,58,62,57,53,88,77,64,30.04,29.96,3,0,10,0.00
2013-6-29,81,67,54,60,55,51,89,69,43,29.99,29.87,6,0,6,0.00
2013-6-30,87,68,56,60,55,51,87,66,45,29.99,29.89,8,1,10,0.00
2013-7-1,79,67,58,54,51,49,75,59,39,30.06,29.98,4,0,8,0.00
2013-7-2,84,70,55,57,53,49,86,58,34,30.08,29.98,2,0,2,0.00
2013-7-3,88,73,58,58,55,53,86,57,32,30.01,29.90,7,0,7,0.00
2013-7-4,93,76,61,63,57,52,79,55,32,29.99,29.93,8,0,8,0.00
2013-7-5,88,77,65,66,61,56,75,59,43,30.05,29.99,6,0,8,0.00
2013-7-6,93,78,65,67,63,58,81,62,38,30.11,30.03,4,0,5,0.00
2013-7-7,91,79,68,68,63,58,78,59,41,30.15,30.08,8,1,10,0.00
2013-7-8,90,78,66,65,60,56,71,56,43,30.18,30.10,6,0,6,0.00
2013-7-9,146,79,51,63,59,54,78,53,37,30.14,29.95,0,0,0,0.00
2013-7-10,90,77,65,65,61,56,81,61,34,29.97,29.77,8,0,11,0.00
2013-7-11,86,73,64,64,58,52,84,62,43,29.90,29.75,8,0,14,0.00
2013-7-12,80,68,57,56,52,49,78,58,38,29.99,29.88,5,0,10,0.00
2013-7-13,83,70,56,56,52,50,80,56,34,30.00,29.94,5,0,11,0.00
2013-7-14,86,71,-6,56,53,49,80,54,31,30.00,29.92,7,0,15,0.00
2013-7-15,84,71,60,61,55,52,75,60,40,30.03,29.91,4,0,6,0.00
2013-7-16,82,70,57,58,54,52,83,61,41,30.12,30.02,8,0,8,0.00
2013-7-17,88,74,59,61,57,53,85,59,36,30.15,30.06,0,0,0,0.00
2013-7-18,90,76,62,68,59,57,84,60,36,30.11,30.02,0,0,0,0.00
2013-7-19,87,70,65,100,61,58,80,67,44,30.05,29.90,0,0,0,0.00
2013-7-20,87,71,62,100,60,49,83,63,40,29.97,29.87,5,0,5,0.00
2013-7-21,84,73,63,54,51,47,60,47,34,30.06,29.96,6,0,6,0.00
2013-7-22,89,72,60,59,54,50,73,55,31,30.06,29.88,57,2,57,0.00
2013-7-23,92,80,66,62,58,55,74,49,31,29.90,29.80,3,0,57,0.00
2013-7-24,93,77,63,58,55,51,72,50,27,29.90,29.83,4,0,4,0.00
2013-7-25,89,74,62,61,56,48,72,54,36,29.94,29.87,3,0,3,0.00
2013-7-26,92,77,62,66,61,56,83,61,38,29.95,29.87,6,0,6,0.00
2013-7-27,96,81,66,65,62,59,83,56,31,29.91,29.85,5,0,5,0.00
2013-7-28,100,83,68,68,63,61,77,54,31,29.94,29.88,8,1,9,0.00
2013-7-29,103,85,70,68,64,60,74,52,28,29.92,29.77,11,2,14,0.00
2013-7-30,85,78,67,67,60,55,87,56,38,29.96,29.80,10,1,12,0.06
2013-7-31,89,76,64,61,58,56,80,55,35,29.99,29.91,6,0,6,0.02
2013-8-1,92,77,64,63,60,56,79,57,35,30.02,29.95,4,0,7,0.00
2013-8-2,94,79,66,64,61,58,79,56,34,30.04,29.94,5,0,58,0.00
2013-8-3,99,82,67,66,62,59,77,54,30,29.96,29.89,6,0,8,0.00
2013-8-4,97,82,70,64,60,52,74,50,31,30.03,29.93,6,0,7,0.00
2013-8-5,97,82,69,64,60,53,67,50,31,30.04,29.94,4,0,5,0.00
2013-8-6,99,84,69,66,63,59,77,53,29,29.99,29.88,5,0,7,0.00
2013-8-7,101,84,8,65,61,56,76,49,26,29.93,29.88,5,0,8,0.00
2013-8-8,102,85,71,67,62,57,67,47,29,29.95,29.88,8,1,10,0.00
2013-8-9,100,84,70,68,63,61,72,52,30,29.90,29.74,3,0,5,0.00
2013-8-10,87,78,69,100,63,57,74,62,49,29.89,29.76,5,0,10,0.00
2013-8-11,86,74,66,62,59,57,76,60,40,29.95,29.88,5,0,6,0.00
2013-8-12,90,75,60,98,57,53,83,56,31,30.00,29.90,5,0,6,0.00
2013-8-13,94,77,63,62,57,54,78,53,30,29.94,29.84,8,0,8,0.00
2013-8-14,84,73,63,64,55,48,87,55,36,30.08,29.93,5,0,10,0.08
2013-8-15,84,72,61,56,51,46,74,49,34,30.15,30.06,4,0,5,0.02
2013-8-16,86,70,57,54,48,45,65,47,27,30.14,30.03,4,0,7,0.00
2013-8-17,89,73,57,57,52,49,76,52,29,30.05,29.94,6,0,6,0.00
2013-8-18,92,76,62,59,54,52,74,49,28,30.02,29.92,6,0,6,0.00
2013-8-19,96,79,63,62,56,51,73,48,27,29.96,29.84,8,0,8,0.00
2013-8-20,91,77,65,65,59,51,82,55,39,30.03,29.87,4,0,6,0.24
2013-8-21,75,68,64,67,63,60,89,84,73,30.09,30.02,4,0,6,0.65
2013-8-22,83,69,59,63,58,53,85,69,48,30.06,29.96,5,0,5,0.02
2013-8-23,85,71,60,60,55,50,74,58,40,30.01,29.91,3,0,4,0.00
2013-8-24,84,72,61,59,54,50,73,55,39,29.95,29.81,2,0,4,0.00
2013-8-25,84,70,60,63,57,50,89,65,46,29.84,29.75,12,0,12,0.08
2013-8-26,70,66,62,67,63,59,90,89,86,29.85,29.80,5,0,5,0.41
2013-8-27,77,68,61,64,61,58,90,78,59,29.89,29.81,3,0,7,0.02
2013-8-28,68,65,61,64,61,57,89,86,81,29.85,29.79,7,0,7,0.04
2013-8-29,77,67,62,92,61,59,89,81,60,30.03,29.84,3,0,57,0.12
2013-8-30,79,67,60,60,56,52,88,70,42,30.06,30.00,4,0,8,0.02
2013-8-31,81,66,56,60,55,52,90,69,43,30.06,29.99,4,0,5,0.00
2013-9-1,82,66,54,59,54,50,88,67,43,30.10,30.00,11,1,14,0.00
2013-9-2,112,62,53,51,48,44,84,62,37,30.16,30.08,7,0,8,0.00
2013-9-3,77,67,58,60,53,46,70,62,51,30.17,30.01,57,2,57,0.00
2013-9-4,77,64,53,54,50,45,86,62,34,30.24,30.13,6,0,10,0.00
2013-9-5,80,65,53,53,49,46,80,58,36,30.14,29.99,8,0,8,0.00
2013-9-6,77,64,22,53,48,-6,78,60,39,30.02,29.96,4,0,6,0.00
2013-9-7,130,64,50,51,46,43,77,57,31,30.11,30.00,10,0,10,0.00
2013-9-8,82,66,51,55,49,45,80,59,34,30.19,30.08,0,0,3,0.00
2013-9-9,71,61,55,58,52,46,91,75,51,30.09,30.00,6,0,6,0.10
2013-9-10,70,60,54,60,56,52,91,85,70,30.07,29.91,4,0,6,0.06
2013-9-11,66,61,54,62,57,51,91,87,78,29.93,29.84,4,0,5,0.26
2013-9-12,71,61,54,59,53,51,92,78,55,29.94,29.85,0,0,0,0.02
2013-9-13,68,59,53,54,51,48,92,76,52,29.98,29.89,12,0,12,0.08
2013-9-14,58,55,-10,54,52,48,92,90,83,29.97,29.86,13,1,24,0.18
2013-9-15,74,61,49,60,55,48,95,80,55,29.91,29.75,39,1,39,0.02
2013-9-16,79,66,57,64,58,54,90,77,53,29.76,29.52,6,0,7,0.00
2013-9-17,64,59,48,59,54,44,93,85,79,29.62,29.42,11,1,11,0.26
2013-9-18,64,57,45,49,46,41,99,68,44,29.67,29.54,14,2,14,0.02
2013-9-19,65,58,51,54,48,41,90,72,47,29.87,29.53,10,1,14,0.00
2013-9-20,70,57,46,52,47,44,98,73,44,30.02,29.86,9,0,9,0.02
2013-9-21,69,60,53,55,53,51,93,79,53,30.18,30.00,10,0,10,0.04
2013-9-22,69,58,50,54,50,46,96,76,45,30.26,30.15,0,0,3,0.02
2013-9-23,70,60,50,55,52,47,89,75,58,30.15,29.86,12,1,14,0.00
2013-9-24,73,64,55,55,52,49,81,67,49,29.89,29.83,14,1,14,0.00
2013-9-25,71,61,53,55,50,46,87,68,48,29.97,29.86,7,1,10,0.00
2013-9-26,78,62,53,61,54,46,91,77,51,29.88,29.71,3,0,8,0.33
2013-9-27,63,56,48,55,48,44,93,76,52,30.04,29.86,2,0,4,0.22
2013-9-28,65,55,48,50,48,44,99,80,49,29.99,29.90,4,0,4,0.00
2013-9-29,62,56,49,49,43,37,91,65,41,29.96,29.85,5,0,5,0.00
2013-9-30,59,52,47,55,50,41,99,94,71,29.86,29.70,4,0,5,0.33
2013-10-1,54,50,48,51,49,47,99,95,82,29.87,29.70,7,0,12,0.08
2013-10-2,56,49,41,49,41,26,99,77,45,30.26,29.85,10,1,13,0.06
2013-10-3,54,44,36,39,31,23,99,63,32,30.45,30.25,7,1,13,0.02
2013-10-4,55,43,35,40,32,20,99,72,27,30.49,30.38,8,0,8,0.00
2013-10-5,60,46,35,43,37,32,99,76,37,30.40,30.16,8,1,10,0.00
2013-10-6,65,50,38,46,40,36,99,76,35,30.26,30.17,5,0,8,0.00
2013-10-7,150,53,40,45,41,36,99,72,30,30.32,30.23,5,0,8,0.00
2013-10-8,70,53,16,47,44,41,99,75,37,30.32,30.19,3,0,5,0.00
2013-10-9,64,54,48,54,50,45,99,87,54,30.20,29.96,10,0,10,0.08
2013-10-10,59,54,52,58,54,52,99,98,95,29.98,29.84,4,0,6,0.33
2013-10-11,74,61,50,60,55,50,99,84,57,30.01,29.88,13,2,13,0.02
2013-10-12,78,64,54,62,58,54,99,82,57,30.11,30.00,9,1,9,0.02
2013-10-13,72,62,56,65,59,55,99,89,67,30.14,30.06,4,0,4,0.08
2013-10-14,72,59,50,57,54,50,99,85,55,30.15,30.02,0,0,0,0.00
2013-10-15,70,58,49,63,54,49,99,88,55,30.03,29.77,8,0,13,0.02
2013-10-16,56,52,49,56,51,49,99,99,99,29.79,29.54,9,0,11,0.59
2013-10-17,63,55,47,54,51,46,99,88,61,33.11,29.59,9,1,11,0.12
2013-10-18,64,54,46,54,47,43,99,82,48,30.07,29.91,10,1,22,0.00
2013-10-19,94,51,42,51,44,39,99,81,43,30.26,30.06,11,1,32,0.00
2013-10-20,73,57,46,53,49,46,99,77,43,30.22,30.11,8,1,11,0.00
2013-10-21,72,60,53,60,54,51,99,84,59,30.13,30.06,8,0,8,0.00
2013-10-22,73,61,51,62,57,51,99,89,64,30.14,30.06,5,1,7,0.00
2013-10-23,77,66,57,60,58,55,99,77,52,30.07,29.98,12,3,14,0.00
2013-10-24,77,64,55,64,57,54,99,81,51,30.13,30.05,8,1,10,0.00
2013-10-25,76,62,53,58,56,53,99,84,52,30.15,30.08,6,1,7,0.00
2013-10-26,76,61,52,61,56,52,99,87,55,30.12,30.06,0,0,0,0.00
2013-10-27,75,61,51,62,56,51,99,85,54,30.09,29.90,8,1,10,0.00
2013-10-28,76,65,55,61,55,50,99,75,42,30.02,29.91,10,2,13,0.00
2013-10-29,74,65,56,58,56,48,99,76,54,30.00,29.90,12,2,12,0.00
2013-10-30,70,59,52,57,52,46,99,80,51,30.25,29.99,6,1,11,0.00
2013-10-31,63,54,49,52,45,34,99,75,35,30.32,30.24,9,1,10,0.00
2013-11-1,61,57,52,58,54,42,99,92,64,30.24,30.08,9,1,39,0.00
2013-11-2,67,58,49,60,54,49,99,90,61,30.08,29.86,11,2,11,0.02
2013-11-3,68,63,54,60,58,54,99,84,69,29.88,29.59,11,4,13,0.10
2013-11-4,58,54,50,55,53,50,99,97,79,29.87,29.50,8,1,10,0.41
2013-11-5,67,57,50,60,56,50,99,95,73,29.49,29.35,15,2,15,0.37
2013-11-6,58,52,48,54,48,39,99,89,50,29.82,29.46,12,1,12,0.39
2013-11-7,63,55,51,56,51,43,99,88,51,30.01,29.82,11,1,13,0.00
2013-11-8,64,57,50,60,55,50,99,94,73,30.02,29.96,8,1,8,0.00
2013-11-9,69,58,52,58,54,50,99,89,55,29.95,29.78,7,1,9,0.00
2013-11-10,59,54,51,58,53,51,99,99,94,29.81,24.16,7,1,10,0.14
2013-11-11,123,54,52,57,53,52,99,99,99,30.18,29.68,16,6,20,0.08
2013-11-12,53,52,52,53,52,52,99,99,99,30.25,30.17,10,4,13,0.02
2013-11-13,52,48,46,49,44,42,90,87,86,30.22,30.19,4,1,5,0.00
2013-11-14,48,45,43,44,39,36,90,80,73,30.21,30.09,11,2,12,0.00
2013-11-15,116,47,40,49,43,38,91,86,79,30.33,30.09,5,0,5,0.00
2013-11-16,55,46,39,47,42,37,91,87,75,30.36,30.27,4,0,6,0.00
2013-11-17,54,44,38,48,41,35,91,89,79,30.28,30.18,2,0,4,0.00
2013-11-18,88,44,37,46,41,35,91,90,86,30.19,30.03,5,0,8,0.00
2013-11-19,55,44,35,46,39,-18,91,84,66,30.03,29.70,10,1,16,0.02
2013-11-20,60,52,45,49,46,41,89,79,66,29.70,29.51,20,6,20,0.02
2013-11-21,53,47,40,100,45,38,91,90,86,29.66,29.53,7,1,10,0.02
2013-11-22,49,46,44,46,44,42,91,90,89,29.69,29.58,4,0,4,0.02
2013-11-23,52,47,42,48,44,40,91,90,85,29.71,29.65,8,2,39,0.02
2013-11-24,52,46,45,100,48,42,91,87,90,29.68,29.60,7,1,10,0.24
2013-11-25,46,38,35,43,36,32,92,91,89,29.98,29.56,8,1,11,0.24
2013-11-26,39,36,34,32,30,26,89,80,71,30.14,29.97,14,3,17,0.02
2013-11-27,40,36,32,31,28,26,81,74,67,30.38,30.13,21,3,132,0.00
2013-11-28,41,34,29,30,28,26,87,78,61,30.40,30.19,12,2,12,0.00
2013-11-29,48,39,34,36,33,30,85,78,62,30.18,30.05,10,1,12,0.00
2013-11-30,46,35,30,36,31,28,90,83,63,30.22,30.00,8,1,8,0.00
2013-12-1,126,35,26,38,30,24,91,84,67,30.29,30.21,5,0,5,0.00
2013-12-2,120,36,28,37,30,25,90,82,67,30.55,30.22,7,1,7,0.00
2013-12-3,44,33,26,31,26,23,90,76,57,30.57,30.44,39,1,39,0.00
2013-12-4,36,28,20,86,26,22,91,90,85,30.44,30.15,7,0,7,0.00
2013-12-5,44,31,24,38,28,22,92,88,76,30.25,29.88,8,1,229,0.00
2013-12-6,46,36,31,36,29,24,91,76,52,29.88,29.73,11,2,15,0.00
2013-12-7,42,35,31,28,25,22,80,67,47,30.19,29.87,21,3,21,0.00
2013-12-8,44,38,22,37,33,28,85,80,73,30.32,30.18,7,1,10,0.00
2013-12-9,49,43,37,40,36,32,84,76,64,30.29,30.09,13,3,18,0.00
2013-12-10,45,36,16,40,26,19,86,67,52,30.70,30.19,11,2,13,0.00
2013-12-11,36,28,22,25,21,18,85,76,62,30.70,30.56,0,0,2,0.00
2013-12-12,36,32,25,29,26,20,85,80,72,30.56,30.39,1,0,6,0.00
2013-12-13,35,33,29,31,29,25,87,85,80,30.38,30.28,2,0,2,0.00
2013-12-14,142,32,30,28,28,27,90,89,87,30.45,30.30,0,0,3,0.00
2013-12-15,36,34,30,33,32,28,91,91,90,30.53,30.44,6,0,6,0.00
2013-12-16,38,36,34,36,34,32,91,91,89,30.64,30.52,4,0,4,0.00
2013-12-17,35,34,6,33,31,28,91,90,87,30.64,30.50,4,0,6,0.00
2013-12-18,31,30,28,28,28,26,92,91,90,30.50,30.30,4,0,5,0.00
2013-12-19,124,30,28,29,27,25,92,90,89,30.30,30.15,7,1,7,0.00
2013-12-20,104,30,27,32,27,24,92,91,89,30.47,30.21,4,0,5,0.00
2013-12-21,41,33,29,37,30,27,92,90,84,30.63,30.48,7,1,7,0.00
2013-12-22,44,36,30,39,33,27,92,89,82,30.59,30.30,5,0,7,0.00
2013-12-23,50,40,32,42,36,30,91,86,75,30.30,30.26,4,0,5,0.00
2013-12-24,52,38,29,40,32,26,91,81,58,30.27,30.02,8,1,10,0.00
2013-12-25,51,41,33,38,33,27,81,73,54,30.02,29.77,14,3,16,0.00
2013-12-26,54,49,42,42,39,36,79,70,61,29.77,29.57,21,9,24,0.00
2013-12-27,60,50,43,46,42,38,87,74,56,29.96,29.63,11,1,11,0.00
2013-12-28,57,45,38,47,41,36,91,84,68,30.03,29.95,10,1,61,0.00
2013-12-29,54,42,35,100,38,32,90,85,68,30.17,29.95,3,0,6,0.00
2013-12-30,49,41,35,42,36,32,91,84,71,30.30,30.17,7,1,11,0.00
2013-12-31,46,38,32,40,34,29,91,86,73,30.28,30.19,29,1,29,0.00
2014-1-1,42,35,27,37,32,25,91,87,80,30.19,30.11,4,0,5,0.00
2014-1-2,47,38,32,38,34,29,90,83,71,30.11,29.95,10,1,10,0.00